MET2565 - Kansas City to Amarillo

Bombardier Dash-8-Q200
837AG
1 hr 45 mins
414 nm
Scheduled - Daily

Bid/PiRep Status

Bid was submitted on October 2nd, 2016 23:44 UTC.
PiRep # 73559: Approved by Dave Nichols on October 5th, 2016 3:32 UTC

Departure

Departing from
Kansas City (MCI)
Departure gate
Scheduled Departure
GMT 1710
Local 1210
METAR KMCI 190453Z 21008KT 10SM CLR 14/11 A3005 RMK AO2 SLP170 T01390106
TAF KMCI 182320Z 1900/1924 18010KT P6SM SCT250

Arrival

Arriving at
Amarillo (AMA)
Arrival gate
A2
Scheduled Arrival
GMT 1855
Local 1355

Route Map

Planning Resources

FRACA,ICT,GAG, KAMA
WLDCT2 V12 PNH
WLDCT2.ICT J26 PNH
KMCI KENTN ICT ZENDA GAG PNH KAMA
FRACA ICT GAG PNH KAMA
Route:
OFP Layout:
Units:
Detailed Navlog:
ETOPS Planning:
Plan Stepclimbs:
Runway Analysis:
Include NOTAMS:
FIR NOTAMS:
Flight Maps:

Popularity

Hub Current Bids PiReps this month Total PiReps
KLAX 0 0 1
KBOS 0 0 0
KDFW 0 0 0